Time;durP1;ratioP1;P1;durP2;ratioP2;P2;SDS_P1;SDS_P2;PMS_P1;PMS_P2;Temp;Humidity;BMP_temperature;BMP_pressure;BME280_temperature;BME280_humidity;BME280_pressure;Samples;Min_cycle;Max_cycle;Signal;HPM_P1;HPM_P2
2024/03/11 00:01:40;;;;;;;1.87;0.80;;;6.70;17.00;;;;;;5098268;28;20182;-67
2024/03/11 00:04:06;;;;;;;2.53;1.20;;;6.70;17.00;;;;;;5098211;28;20419;-67
2024/03/11 00:06:35;;;;;;;2.63;0.90;;;6.80;17.10;;;;;;5096730;28;20419;-67
2024/03/11 00:09:03;;;;;;;1.90;1.10;;;6.70;17.00;;;;;;5095636;28;20428;-67
2024/03/11 00:11:29;;;;;;;1.70;0.63;;;6.70;17.00;;;;;;5097212;28;20416;-68
2024/03/11 00:13:56;;;;;;;2.20;0.97;;;6.70;16.50;;;;;;5096940;28;20415;-69
2024/03/11 00:16:22;;;;;;;2.10;0.77;;;6.70;15.50;;;;;;5096759;28;20431;-68
2024/03/11 00:18:48;;;;;;;1.60;0.60;;;6.70;14.60;;;;;;5097568;28;20429;-69
2024/03/11 00:21:13;;;;;;;1.90;1.07;;;6.70;13.30;;;;;;5097830;28;20446;-69
2024/03/11 00:23:39;;;;;;;1.70;0.83;;;6.60;12.60;;;;;;5097953;28;20399;-68
2024/03/11 00:26:05;;;;;;;1.60;0.60;;;6.60;13.00;;;;;;5098288;28;20180;-69
2024/03/11 00:28:33;;;;;;;2.23;0.70;;;6.60;13.00;;;;;;5097951;28;20194;-69
2024/03/11 00:31:00;;;;;;;1.60;0.60;;;6.50;12.60;;;;;;5097635;28;20410;-69
2024/03/11 00:33:28;;;;;;;2.27;0.70;;;6.50;12.60;;;;;;5096704;28;20427;-69
2024/03/11 00:35:54;;;;;;;2.40;0.70;;;6.50;12.60;;;;;;5097804;28;20436;-68
2024/03/11 00:38:19;;;;;;;1.40;0.50;;;6.50;11.80;;;;;;5097001;28;20475;-67
2024/03/11 00:40:45;;;;;;;1.60;0.67;;;6.50;11.80;;;;;;5097644;28;20461;-67
2024/03/11 00:43:11;;;;;;;1.60;0.53;;;6.50;10.30;;;;;;5097084;28;20176;-68
2024/03/11 00:45:37;;;;;;;1.50;0.50;;;6.50;9.70;;;;;;5097458;28;20205;-67
2024/03/11 00:48:06;;;;;;;1.50;0.47;;;6.60;9.00;;;;;;5097874;28;20258;-68
2024/03/11 00:50:33;;;;;;;1.50;0.60;;;6.60;8.00;;;;;;5097426;28;20427;-68
2024/03/11 00:53:00;;;;;;;2.33;0.70;;;6.70;8.30;;;;;;5097265;28;20909;-68
2024/03/11 00:55:25;;;;;;;2.20;0.67;;;6.80;6.30;;;;;;5097446;28;20761;-68
2024/03/11 00:57:52;;;;;;;1.50;0.50;;;6.70;6.20;;;;;;5097858;28;20480;-68
2024/03/11 01:00:21;;;;;;;2.70;1.00;;;6.80;6.30;;;;;;5097989;28;20201;-68
2024/03/11 01:02:49;;;;;;;2.30;0.60;;;6.70;6.10;;;;;;5096488;28;20415;-68
2024/03/11 01:05:15;;;;;;;2.27;0.60;;;6.70;7.90;;;;;;5096947;28;20411;-68
2024/03/11 01:07:40;;;;;;;1.90;0.60;;;6.80;5.40;;;;;;5097187;28;20841;-69
2024/03/11 01:10:06;;;;;;;1.40;0.40;;;6.80;5.50;;;;;;5097360;28;20440;-69
2024/03/11 01:12:32;;;;;;;3.50;1.53;;;6.80;5.10;;;;;;5097465;28;20196;-68
2024/03/11 01:14:57;;;;;;;1.70;0.73;;;6.80;5.40;;;;;;5097790;28;20655;-68
2024/03/11 01:17:23;;;;;;;3.30;1.00;;;6.70;6.10;;;;;;5096633;28;20285;-68
2024/03/11 01:19:48;;;;;;;2.37;0.70;;;6.70;6.10;;;;;;5097920;28;20202;-68
2024/03/11 01:22:15;;;;;;;1.87;0.77;;;6.70;5.50;;;;;;5098282;28;20184;-67
2024/03/11 01:24:41;;;;;;;2.77;1.63;;;6.60;5.80;;;;;;5097269;28;20253;-67
2024/03/11 01:27:10;;;;;;;1.70;0.60;;;6.60;6.20;;;;;;5092918;28;20529;-68
2024/03/11 01:29:38;;;;;;;2.00;0.80;;;6.60;5.70;;;;;;5097472;28;20191;-68
2024/03/11 01:32:06;;;;;;;1.53;0.57;;;6.80;5.40;;;;;;5099342;28;20784;-68
2024/03/11 01:34:33;;;;;;;2.13;0.73;;;6.80;4.50;;;;;;5099365;28;20492;-67
2024/03/11 01:37:00;;;;;;;2.67;0.90;;;6.80;3.90;;;;;;5098373;28;20407;-67
2024/03/11 01:39:42;;;;;;;1.70;0.60;;;6.80;4.60;;;;;;5098634;28;20455;-69
2024/03/11 01:42:17;;;;;;;3.53;3.00;;;6.80;4.40;;;;;;5098936;28;20403;-68
2024/03/11 01:44:48;;;;;;;1.50;0.67;;;6.70;4.20;;;;;;5095530;28;20414;-69
2024/03/11 01:47:15;;;;;;;1.90;0.77;;;6.70;4.90;;;;;;5095600;28;20978;-68
2024/03/11 01:49:43;;;;;;;1.90;0.60;;;6.70;4.90;;;;;;5092114;22;20569;-74
2024/03/11 01:52:13;;;;;;;2.13;0.70;;;6.60;5.00;;;;;;5086246;28;20422;-74
2024/03/11 01:54:38;;;;;;;1.80;0.67;;;6.60;5.10;;;;;;5084250;28;20436;-73
2024/03/11 01:57:10;;;;;;;2.47;0.63;;;6.60;4.90;;;;;;5056317;28;20527;-72
2024/03/11 01:59:37;;;;;;;1.60;0.50;;;6.60;5.50;;;;;;5053175;28;20218;-71
2024/03/11 02:02:07;;;;;;;2.90;0.63;;;6.50;6.00;;;;;;5053917;28;20780;-73
2024/03/11 02:04:44;;;;;;;1.83;0.70;;;6.40;5.70;;;;;;5052849;28;20449;-73
2024/03/11 02:07:13;;;;;;;2.23;0.80;;;6.30;6.10;;;;;;5054528;28;20460;-72
2024/03/11 02:09:42;;;;;;;1.63;0.60;;;6.30;6.70;;;;;;5054193;28;20954;-74
2024/03/11 02:12:12;;;;;;;1.40;0.50;;;6.20;6.90;;;;;;5055549;28;20414;-73
2024/03/11 02:14:38;;;;;;;1.50;0.50;;;6.20;6.60;;;;;;5059285;28;20405;-72
2024/03/11 02:17:04;;;;;;;1.60;0.60;;;6.10;7.50;;;;;;5068770;28;20815;-73
2024/03/11 02:19:31;;;;;;;1.60;0.50;;;6.10;7.50;;;;;;5069430;28;20456;-71
2024/03/11 02:21:57;;;;;;;2.83;0.57;;;6.00;7.90;;;;;;5071232;28;20413;-72
2024/03/11 02:24:25;;;;;;;1.70;0.67;;;6.00;7.90;;;;;;5064748;28;20433;-72
2024/03/11 02:26:54;;;;;;;1.70;0.70;;;5.90;8.30;;;;;;5067493;28;20253;-72
2024/03/11 02:29:20;;;;;;;2.00;0.80;;;5.90;7.80;;;;;;5067066;28;20429;-73
2024/03/11 02:31:47;;;;;;;1.63;0.60;;;5.90;7.80;;;;;;5065023;28;20418;-71
2024/03/11 02:34:14;;;;;;;1.50;0.50;;;5.80;7.90;;;;;;5073275;28;20413;-72
2024/03/11 02:36:43;;;;;;;2.40;0.73;;;5.70;9.50;;;;;;5054818;28;20421;-71
2024/03/11 02:39:10;;;;;;;1.70;0.70;;;5.60;11.40;;;;;;5053984;28;20465;-72
2024/03/11 02:41:36;;;;;;;1.93;0.60;;;5.50;12.50;;;;;;5054620;28;20415;-75
2024/03/11 02:44:03;;;;;;;1.93;0.70;;;5.50;13.10;;;;;;5054549;28;20823;-74
2024/03/11 02:46:30;;;;;;;1.80;0.70;;;5.40;13.60;;;;;;5054122;28;20444;-73
2024/03/11 02:48:57;;;;;;;2.47;1.00;;;5.40;14.00;;;;;;5053772;28;20495;-72
2024/03/11 02:51:23;;;;;;;1.57;0.63;;;5.30;14.30;;;;;;5053913;28;20417;-73
2024/03/11 02:53:49;;;;;;;1.43;0.50;;;5.30;14.70;;;;;;5053899;28;20417;-74
2024/03/11 02:56:14;;;;;;;1.40;0.47;;;5.20;16.00;;;;;;5053510;28;20436;-72
2024/03/11 02:58:40;;;;;;;2.10;0.80;;;5.10;16.00;;;;;;5053345;28;20255;-73
2024/03/11 03:01:06;;;;;;;1.67;0.70;;;5.10;16.10;;;;;;5053142;28;20229;-74
2024/03/11 03:03:35;;;;;;;2.20;1.03;;;5.00;17.10;;;;;;5051914;28;20281;-73
2024/03/11 03:06:01;;;;;;;1.77;1.10;;;5.00;17.10;;;;;;5053141;28;20409;-71
2024/03/11 03:08:27;;;;;;;2.20;1.00;;;4.90;17.20;;;;;;5051487;28;20436;-72
2024/03/11 03:10:53;;;;;;;1.80;0.77;;;4.90;18.00;;;;;;5051898;28;20550;-71
2024/03/11 03:13:20;;;;;;;1.90;0.70;;;4.90;17.40;;;;;;5051747;28;20508;-72
2024/03/11 03:15:46;;;;;;;1.40;0.50;;;4.80;18.50;;;;;;5052515;28;20424;-73
2024/03/11 03:18:14;;;;;;;2.20;1.00;;;4.70;18.70;;;;;;5051602;28;20516;-73
2024/03/11 03:20:40;;;;;;;3.70;1.00;;;4.60;19.50;;;;;;5052778;28;20457;-72
2024/03/11 03:23:06;;;;;;;1.80;0.93;;;4.60;19.90;;;;;;5051557;28;20431;-73
2024/03/11 03:25:35;;;;;;;1.90;0.60;;;4.50;20.10;;;;;;5052489;28;20185;-73
2024/03/11 03:28:05;;;;;;;1.87;0.97;;;4.50;19.80;;;;;;5050943;28;20420;-72
2024/03/11 03:30:34;;;;;;;2.40;0.63;;;4.40;20.20;;;;;;5052682;28;20927;-71
2024/03/11 03:33:00;;;;;;;1.57;0.77;;;4.30;21.10;;;;;;5051972;28;20276;-73
2024/03/11 03:35:26;;;;;;;1.73;0.97;;;4.30;21.80;;;;;;5053356;28;20419;-73
2024/03/11 03:37:55;;;;;;;2.50;0.80;;;4.20;21.60;;;;;;5051827;28;20435;-74
2024/03/11 03:40:22;;;;;;;3.07;1.33;;;4.10;23.90;;;;;;5053101;28;20219;-72
2024/03/11 03:42:49;;;;;;;2.90;0.67;;;4.10;23.80;;;;;;5052565;28;20408;-73
2024/03/11 03:45:15;;;;;;;1.70;0.70;;;4.10;24.10;;;;;;5050505;28;20425;-72
2024/03/11 03:47:45;;;;;;;1.70;0.80;;;4.00;24.50;;;;;;5052310;28;20427;-73
2024/03/11 03:50:12;;;;;;;2.00;0.82;;;4.00;25.00;;;;;;5052359;28;20256;-72
2024/03/11 03:52:38;;;;;;;2.27;0.93;;;4.00;25.10;;;;;;5051821;28;20672;-73
2024/03/11 03:55:05;;;;;;;1.90;0.90;;;3.90;25.10;;;;;;5050834;28;20477;-73
2024/03/11 03:57:33;;;;;;;1.80;0.80;;;3.80;26.00;;;;;;5052130;28;20967;-72
2024/03/11 04:00:00;;;;;;;1.92;0.82;;;3.80;26.80;;;;;;5050888;28;20723;-73
2024/03/11 04:02:26;;;;;;;2.67;0.98;;;3.70;27.50;;;;;;5051137;28;20179;-72
2024/03/11 04:04:52;;;;;;;2.25;0.90;;;3.60;28.30;;;;;;5050485;28;20555;-73
2024/03/11 04:07:18;;;;;;;2.03;1.00;;;3.60;28.50;;;;;;5051970;28;20183;-73
2024/03/11 04:09:44;;;;;;;1.97;0.70;;;3.50;29.90;;;;;;5051581;28;20568;-73
2024/03/11 04:12:09;;;;;;;2.60;1.10;;;3.50;29.40;;;;;;5052151;28;20415;-72
2024/03/11 04:14:36;;;;;;;1.70;0.83;;;3.50;29.70;;;;;;5051676;28;20176;-74
2024/03/11 04:17:03;;;;;;;1.60;0.73;;;3.50;30.10;;;;;;5051858;28;20654;-71
2024/03/11 04:19:30;;;;;;;2.25;1.25;;;3.40;31.10;;;;;;5050423;28;20598;-72
2024/03/11 04:21:56;;;;;;;2.13;1.10;;;3.40;31.40;;;;;;5050479;28;20170;-74
2024/03/11 04:24:22;;;;;;;3.00;1.30;;;3.40;31.60;;;;;;5050727;28;20729;-72
2024/03/11 04:26:48;;;;;;;1.90;1.00;;;3.40;31.60;;;;;;5052075;28;20174;-73
2024/03/11 04:29:16;;;;;;;1.90;0.90;;;3.30;32.00;;;;;;5051513;28;20438;-73
2024/03/11 04:31:42;;;;;;;4.50;1.30;;;3.30;32.90;;;;;;5051599;28;20424;-72
2024/03/11 04:34:08;;;;;;;3.00;1.07;;;3.30;33.40;;;;;;5051905;28;20187;-73
2024/03/11 04:36:36;;;;;;;2.03;1.10;;;3.20;32.50;;;;;;5051387;28;20184;-73
2024/03/11 04:39:05;;;;;;;2.35;1.20;;;3.20;33.70;;;;;;5051692;28;20813;-74
2024/03/11 04:41:31;;;;;;;3.13;1.25;;;3.20;33.30;;;;;;5052194;28;20170;-73
2024/03/11 04:44:00;;;;;;;4.20;1.07;;;3.10;33.70;;;;;;5050158;28;20176;-73
2024/03/11 04:46:27;;;;;;;2.15;1.13;;;3.10;34.40;;;;;;5031362;28;20412;-74
2024/03/11 04:48:52;;;;;;;1.80;0.93;;;3.00;33.60;;;;;;5032074;28;20715;-73
2024/03/11 04:51:18;;;;;;;1.93;1.37;;;3.00;34.80;;;;;;5030569;28;20184;-73
2024/03/11 04:53:48;;;;;;;1.97;1.10;;;2.90;35.00;;;;;;5030582;28;20186;-73
2024/03/11 04:56:15;;;;;;;4.95;1.40;;;2.90;34.50;;;;;;5030565;28;20185;-72
2024/03/11 04:58:41;;;;;;;2.25;1.15;;;2.90;34.40;;;;;;5041387;28;20675;-73
2024/03/11 05:01:07;;;;;;;3.07;1.57;;;2.90;35.20;;;;;;5051447;28;20237;-73
2024/03/11 05:03:32;;;;;;;3.13;1.60;;;2.90;35.70;;;;;;5050481;28;20185;-74
2024/03/11 05:05:58;;;;;;;3.17;1.90;;;2.90;35.30;;;;;;5055301;28;20264;-73
2024/03/11 05:08:24;;;;;;;2.70;2.00;;;2.90;35.10;;;;;;5053972;28;20239;-72
2024/03/11 05:10:50;;;;;;;4.07;2.28;;;3.00;35.40;;;;;;5055451;28;20198;-72
2024/03/11 05:13:16;;;;;;;4.07;1.88;;;3.00;35.10;;;;;;5053684;28;20213;-73
2024/03/11 05:15:47;;;;;;;3.25;2.15;;;3.00;35.30;;;;;;5070228;28;20597;-72
2024/03/11 05:18:15;;;;;;;2.80;1.92;;;3.00;34.50;;;;;;5055517;28;20202;-73
2024/03/11 05:20:41;;;;;;;4.55;2.70;;;3.00;33.90;;;;;;5056485;28;20212;-73
2024/03/11 05:23:06;;;;;;;3.70;2.73;;;3.00;34.40;;;;;;5056165;28;20592;-74
2024/03/11 05:25:32;;;;;;;4.40;2.00;;;3.00;33.90;;;;;;5054464;28;20469;-73
2024/03/11 05:27:58;;;;;;;3.30;2.60;;;3.00;33.90;;;;;;5054856;28;20190;-73
2024/03/11 05:30:24;;;;;;;4.32;2.90;;;3.00;33.20;;;;;;5054975;28;20264;-73
2024/03/11 05:32:50;;;;;;;3.35;2.00;;;3.00;32.70;;;;;;5054986;28;20172;-73
2024/03/11 05:35:17;;;;;;;4.50;3.03;;;3.00;32.50;;;;;;5053671;28;20189;-73
2024/03/11 05:37:45;;;;;;;5.95;2.70;;;3.00;32.80;;;;;;5055117;28;20584;-73
2024/03/11 05:40:11;;;;;;;5.13;3.17;;;3.00;33.00;;;;;;5054509;28;20210;-72
2024/03/11 05:42:40;;;;;;;7.30;4.68;;;3.00;31.30;;;;;;5053427;28;20204;-73
2024/03/11 05:45:07;;;;;;;5.03;3.63;;;3.00;31.30;;;;;;5054285;28;20178;-72
2024/03/11 05:47:32;;;;;;;4.63;3.08;;;3.00;31.30;;;;;;5054500;28;20179;-75
2024/03/11 05:49:58;;;;;;;5.97;4.10;;;2.90;31.70;;;;;;5054559;28;20649;-71
2024/03/11 05:52:26;;;;;;;4.37;3.67;;;2.90;31.60;;;;;;5054218;28;20255;-70
2024/03/11 05:54:57;;;;;;;4.35;3.30;;;2.90;31.90;;;;;;5054701;28;20172;-70
2024/03/11 05:57:25;;;;;;;4.47;3.45;;;2.90;32.10;;;;;;5073394;28;20177;-72
2024/03/11 05:59:52;;;;;;;6.72;3.72;;;2.90;31.60;;;;;;5074317;28;20212;-73
2024/03/11 06:02:18;;;;;;;3.75;2.58;;;3.00;31.80;;;;;;5073007;28;20178;-72
2024/03/11 06:04:45;;;;;;;4.75;2.47;;;3.00;31.30;;;;;;5055345;28;20171;-73
2024/03/11 06:07:11;;;;;;;3.83;2.40;;;3.00;30.80;;;;;;5062260;28;20179;-74
2024/03/11 06:09:37;;;;;;;4.63;2.33;;;3.00;30.20;;;;;;5076678;28;20210;-71
2024/03/11 06:12:07;;;;;;;4.73;2.50;;;3.00;30.50;;;;;;5075932;28;20211;-72
2024/03/11 06:14:35;;;;;;;5.80;3.70;;;3.00;30.00;;;;;;5071730;28;20227;-72
2024/03/11 06:17:04;;;;;;;5.00;3.38;;;3.00;30.60;;;;;;5057573;28;20192;-72
2024/03/11 06:19:32;;;;;;;3.72;2.40;;;3.10;30.50;;;;;;5056630;28;20234;-73
2024/03/11 06:21:57;;;;;;;3.55;2.15;;;3.10;30.40;;;;;;5054468;28;20179;-72
2024/03/11 06:24:28;;;;;;;4.77;2.63;;;3.10;29.40;;;;;;5055262;28;20255;-73
2024/03/11 06:26:58;;;;;;;4.80;3.08;;;3.10;30.30;;;;;;5057182;28;20459;-73
2024/03/11 06:29:26;;;;;;;4.65;3.55;;;3.10;30.50;;;;;;5063403;28;20229;-71
2024/03/11 06:31:55;;;;;;;3.88;2.60;;;3.30;30.70;;;;;;5070559;28;20181;-72
2024/03/11 06:34:23;;;;;;;4.15;3.40;;;3.30;30.40;;;;;;5064397;28;20689;-72
2024/03/11 06:36:49;;;;;;;4.60;2.92;;;3.40;29.20;;;;;;5066823;28;20173;-71
2024/03/11 06:39:20;;;;;;;3.53;2.50;;;3.50;28.00;;;;;;5062516;28;20573;-72
2024/03/11 06:41:46;;;;;;;5.40;2.42;;;3.60;28.10;;;;;;5056124;28;20188;-70
2024/03/11 06:44:12;;;;;;;3.53;2.83;;;3.70;27.40;;;;;;5070173;28;20564;-72
2024/03/11 06:46:37;;;;;;;3.90;2.90;;;3.80;26.80;;;;;;5050672;28;20213;-72
2024/03/11 06:49:04;;;;;;;4.27;2.50;;;3.90;25.50;;;;;;5033580;28;20236;-72
2024/03/11 06:51:30;;;;;;;4.43;2.90;;;4.00;24.60;;;;;;5034737;28;20188;-73
2024/03/11 06:53:56;;;;;;;4.35;2.60;;;4.10;23.10;;;;;;5034567;28;20174;-73
2024/03/11 06:56:21;;;;;;;4.23;2.70;;;4.20;23.70;;;;;;5039935;28;20546;-72
2024/03/11 06:58:48;;;;;;;3.03;2.60;;;4.30;23.10;;;;;;5054182;28;20439;-72
2024/03/11 07:01:16;;;;;;;2.65;2.00;;;4.40;21.40;;;;;;5054377;28;20192;-73
2024/03/11 07:03:41;;;;;;;2.83;2.10;;;4.50;21.50;;;;;;5054072;28;20180;-71
2024/03/11 07:06:08;;;;;;;2.97;1.90;;;4.60;19.90;;;;;;5053596;28;20499;-72
2024/03/11 07:08:36;;;;;;;3.20;2.57;;;4.80;17.90;;;;;;5036474;28;20201;-72
2024/03/11 07:11:02;;;;;;;3.83;2.30;;;4.80;17.50;;;;;;5059248;28;20915;-71
2024/03/11 07:13:37;;;;;;;5.23;2.47;;;4.90;15.80;;;;;;5052685;28;20455;-73
2024/03/11 07:16:06;;;;;;;3.20;2.03;;;5.00;15.90;;;;;;5053054;28;20412;-70
2024/03/11 07:18:33;;;;;;;6.50;1.90;;;5.20;14.50;;;;;;5052876;28;20441;-70
2024/03/11 07:20:59;;;;;;;3.10;1.70;;;5.20;13.50;;;;;;5052694;28;20460;-69
2024/03/11 07:23:33;;;;;;;3.07;1.80;;;5.40;13.20;;;;;;5051852;28;20457;-71
2024/03/11 07:25:59;;;;;;;2.87;1.73;;;5.40;12.90;;;;;;5052144;28;20875;-71
2024/03/11 07:28:29;;;;;;;4.53;2.23;;;5.50;11.90;;;;;;5052609;28;21011;-72
2024/03/11 07:30:58;;;;;;;2.70;1.83;;;5.60;11.40;;;;;;5052959;28;20432;-73
2024/03/11 07:33:24;;;;;;;2.53;1.43;;;5.70;11.10;;;;;;5051754;28;20417;-73
2024/03/11 07:35:52;;;;;;;2.60;1.40;;;5.80;10.10;;;;;;5052408;28;20428;-73
2024/03/11 07:38:19;;;;;;;4.67;1.23;;;5.90;9.30;;;;;;5051126;28;20202;-74
2024/03/11 07:40:45;;;;;;;2.73;1.37;;;6.00;9.10;;;;;;5052452;28;21066;-74
2024/03/11 07:43:11;;;;;;;3.70;2.30;;;6.00;8.40;;;;;;5052696;28;20497;-74
2024/03/11 07:45:38;;;;;;;2.63;1.40;;;6.10;7.90;;;;;;5067472;28;20775;-74
2024/03/11 07:48:05;;;;;;;3.47;1.90;;;6.30;8.00;;;;;;5052876;28;20530;-74
2024/03/11 07:50:32;;;;;;;3.40;1.63;;;6.40;6.80;;;;;;5053403;28;21026;-75
2024/03/11 07:52:57;;;;;;;4.17;1.47;;;6.50;6.40;;;;;;5051021;28;20770;-68
2024/03/11 07:55:24;;;;;;;3.40;1.20;;;6.60;5.20;;;;;;5048615;28;20424;-70
2024/03/11 07:57:53;;;;;;;2.93;1.30;;;6.70;4.80;;;;;;5059583;28;20437;-69
2024/03/11 08:00:21;;;;;;;4.13;1.07;;;6.90;3.40;;;;;;5067331;28;20549;-71
2024/03/11 08:02:50;;;;;;;2.50;1.37;;;7.00;3.10;;;;;;5068613;28;20778;-70
2024/03/11 08:05:18;;;;;;;2.67;1.20;;;7.20;2.10;;;;;;5049926;28;20945;-69
2024/03/11 08:07:44;;;;;;;2.10;1.00;;;7.30;1.30;;;;;;5047876;28;20517;-70
2024/03/11 08:10:12;;;;;;;2.03;1.00;;;7.50;1.00;;;;;;5048338;28;20457;-69
2024/03/11 08:12:38;;;;;;;2.53;0.83;;;7.50;1.00;;;;;;5051607;28;20426;-71
2024/03/11 08:15:11;;;;;;;2.60;1.30;;;7.60;1.00;;;;;;5051683;28;20426;-69
2024/03/11 08:17:37;;;;;;;2.00;0.80;;;7.80;1.00;;;;;;5051895;28;20846;-71
2024/03/11 08:20:09;;;;;;;2.53;1.00;;;8.00;1.00;;;;;;5051810;28;20520;-70
2024/03/11 08:22:42;;;;;;;2.10;0.83;;;8.10;1.00;;;;;;5050489;28;20499;-70
2024/03/11 08:25:08;;;;;;;2.27;1.00;;;8.60;1.00;;;;;;5051926;28;20411;-72
2024/03/11 08:27:36;;;;;;;2.00;1.00;;;9.10;1.00;;;;;;5050626;28;20422;-70
2024/03/11 08:30:02;;;;;;;2.30;1.20;;;9.00;1.00;;;;;;5082770;22;20921;-71
2024/03/11 08:32:27;;;;;;;1.70;0.77;;;9.20;1.00;;;;;;5091435;28;20418;-71
2024/03/11 08:34:56;;;;;;;1.90;1.00;;;9.50;1.00;;;;;;5091276;28;20184;-71
2024/03/11 08:37:22;;;;;;;4.33;1.37;;;9.50;1.00;;;;;;5086149;28;20188;-70
2024/03/11 08:39:48;;;;;;;3.13;1.07;;;9.50;1.00;;;;;;5095431;28;20940;-70
2024/03/11 08:42:14;;;;;;;1.73;0.80;;;9.90;1.00;;;;;;5093562;28;20181;-70
2024/03/11 08:44:42;;;;;;;2.37;1.00;;;9.80;1.00;;;;;;5095663;28;20407;-70
2024/03/11 08:47:11;;;;;;;2.10;0.90;;;9.60;1.00;;;;;;5095951;28;20628;-70
2024/03/11 08:49:40;;;;;;;2.20;1.10;;;9.40;1.00;;;;;;5113544;28;20426;-71
2024/03/11 08:52:06;;;;;;;2.40;1.23;;;9.40;1.00;;;;;;5107202;28;20435;-70
2024/03/11 08:54:35;;;;;;;3.30;0.90;;;9.30;1.00;;;;;;5074701;28;20554;-70
2024/03/11 08:57:01;;;;;;;2.43;1.20;;;9.30;1.00;;;;;;5075243;28;20410;-73
2024/03/11 08:59:28;;;;;;;2.27;1.17;;;9.20;1.00;;;;;;5078775;28;20452;-71
2024/03/11 09:01:57;;;;;;;2.03;1.20;;;9.20;1.00;;;;;;5115812;28;20415;-72
2024/03/11 09:04:24;;;;;;;2.30;1.10;;;9.20;1.00;;;;;;5079073;28;20448;-75
2024/03/11 09:06:49;;;;;;;3.00;1.37;;;9.30;1.00;;;;;;5075048;28;20422;-73
2024/03/11 09:09:15;;;;;;;2.23;1.17;;;9.40;1.00;;;;;;5075156;28;20825;-71
2024/03/11 09:11:41;;;;;;;2.40;1.20;;;9.50;1.00;;;;;;5076292;28;20200;-72
2024/03/11 09:14:07;;;;;;;3.50;1.17;;;9.60;1.00;;;;;;5076453;28;20178;-72
2024/03/11 09:16:33;;;;;;;5.63;1.20;;;9.70;1.00;;;;;;5088081;28;20271;-71
2024/03/11 09:18:59;;;;;;;5.73;1.27;;;9.80;1.00;;;;;;5079729;28;20419;-72
2024/03/11 09:21:25;;;;;;;3.80;1.40;;;9.90;1.00;;;;;;5078150;28;20444;-73
2024/03/11 09:23:51;;;;;;;2.40;1.13;;;10.00;1.00;;;;;;5076401;28;20507;-71
2024/03/11 09:26:17;;;;;;;1.97;1.07;;;10.00;1.00;;;;;;5075811;28;20471;-70
2024/03/11 09:28:46;;;;;;;2.23;0.90;;;10.10;1.00;;;;;;5075283;28;21176;-71
2024/03/11 09:31:15;;;;;;;2.33;1.27;;;10.30;1.00;;;;;;5074729;28;20883;-71
2024/03/11 09:33:44;;;;;;;2.13;1.10;;;10.40;1.00;;;;;;5074696;28;20444;-71
2024/03/11 09:36:09;;;;;;;2.70;1.10;;;10.50;1.00;;;;;;5074729;28;20447;-72
2024/03/11 09:38:36;;;;;;;1.90;0.87;;;10.50;1.00;;;;;;5074941;28;20440;-71
2024/03/11 09:41:14;;;;;;;1.70;0.90;;;10.60;1.00;;;;;;5074694;28;20582;-72
2024/03/11 09:43:48;;;;;;;2.20;0.90;;;10.60;1.00;;;;;;5074585;28;20412;-73
2024/03/11 09:46:22;;;;;;;1.90;0.90;;;10.60;1.00;;;;;;5074492;28;20936;-72
2024/03/11 09:48:51;;;;;;;1.70;0.93;;;10.60;1.00;;;;;;5074388;28;20431;-73
2024/03/11 09:51:21;;;;;;;4.50;0.90;;;10.70;1.00;;;;;;5073516;28;20474;-72
2024/03/11 09:53:53;;;;;;;1.90;0.80;;;10.80;1.00;;;;;;5074398;28;20408;-71
2024/03/11 09:56:21;;;;;;;2.23;1.03;;;10.80;1.00;;;;;;5074265;28;20428;-72
2024/03/11 09:58:57;;;;;;;1.97;0.90;;;10.80;1.00;;;;;;5074339;28;20906;-71
2024/03/11 10:01:33;;;;;;;2.07;1.30;;;11.00;1.00;;;;;;5074440;28;20463;-71
2024/03/11 10:03:58;;;;;;;1.63;0.90;;;11.10;1.00;;;;;;5074526;28;20405;-71
2024/03/11 10:06:26;;;;;;;2.30;1.30;;;11.10;1.00;;;;;;5055839;28;20417;-72
2024/03/11 10:08:51;;;;;;;2.40;0.97;;;11.20;1.00;;;;;;5073938;28;20213;-72
2024/03/11 10:11:20;;;;;;;2.77;1.27;;;11.20;1.00;;;;;;5073871;28;20445;-71
2024/03/11 10:13:52;;;;;;;2.10;1.03;;;11.40;1.00;;;;;;5073928;28;20185;-74
2024/03/11 10:16:21;;;;;;;1.80;0.90;;;11.60;1.00;;;;;;5073688;28;20412;-71
2024/03/11 10:19:11;;;;;;;2.73;1.00;;;11.60;1.00;;;;;;5073921;28;20910;-73
2024/03/11 10:21:48;;;;;;;1.70;0.70;;;11.70;1.00;;;;;;5073718;28;20864;-72
2024/03/11 10:24:15;;;;;;;2.37;1.20;;;11.70;1.00;;;;;;5073650;28;20467;-71
2024/03/11 10:26:41;;;;;;;2.07;0.93;;;11.70;1.00;;;;;;5055379;28;20413;-71
2024/03/11 10:29:11;;;;;;;1.90;0.90;;;11.70;1.00;;;;;;5073882;28;20825;-71
2024/03/11 10:31:40;;;;;;;1.90;1.00;;;11.80;1.00;;;;;;5073623;28;20454;-73
2024/03/11 10:34:12;;;;;;;1.80;0.90;;;12.00;1.00;;;;;;5074277;28;20412;-70
2024/03/11 10:36:40;;;;;;;1.60;0.70;;;12.10;1.00;;;;;;5073259;28;20431;-70
2024/03/11 10:39:18;;;;;;;3.67;1.47;;;12.20;1.00;;;;;;5073347;28;20769;-70
2024/03/11 10:41:45;;;;;;;2.70;1.13;;;12.30;1.00;;;;;;5074167;28;20472;-70
2024/03/11 10:44:19;;;;;;;2.50;0.97;;;12.70;1.00;;;;;;5073858;28;20415;-71
2024/03/11 10:46:45;;;;;;;1.90;0.83;;;13.20;1.00;;;;;;5073353;28;20896;-70
2024/03/11 10:49:14;;;;;;;2.03;1.07;;;13.80;1.00;;;;;;5073786;28;20420;-70
2024/03/11 10:51:45;;;;;;;2.00;1.10;;;13.90;1.00;;;;;;5073292;28;20250;-70
2024/03/11 10:54:28;;;;;;;1.70;1.00;;;14.10;1.00;;;;;;5055243;28;20512;-70
2024/03/11 10:56:55;;;;;;;2.17;1.30;;;14.10;1.00;;;;;;5080988;28;20560;-71
2024/03/11 10:59:29;;;;;;;2.43;1.53;;;14.40;1.00;;;;;;5081205;28;20443;-74
2024/03/11 11:01:58;;;;;;;1.83;1.10;;;14.30;1.00;;;;;;5071337;28;20422;-69
2024/03/11 11:04:33;;;;;;;2.17;1.50;;;14.10;1.00;;;;;;5073156;28;20925;-67
2024/03/11 11:06:59;;;;;;;2.10;1.30;;;14.20;1.00;;;;;;5073125;28;20399;-70
2024/03/11 11:09:27;;;;;;;2.37;1.30;;;14.80;1.00;;;;;;5072975;28;20407;-70
2024/03/11 11:11:54;;;;;;;2.37;1.20;;;15.10;1.00;;;;;;5072483;28;20454;-69
2024/03/11 11:14:24;;;;;;;1.70;1.33;;;15.40;1.00;;;;;;5072265;28;20495;-68
2024/03/11 11:16:51;;;;;;;1.90;1.30;;;14.60;1.00;;;;;;5078282;28;20423;-68
2024/03/11 11:19:24;;;;;;;3.03;1.40;;;14.40;1.00;;;;;;5068687;28;20789;-68
2024/03/11 11:21:51;;;;;;;2.20;1.30;;;14.70;1.00;;;;;;5072427;28;20424;-69
2024/03/11 11:24:29;;;;;;;1.93;1.30;;;15.20;1.00;;;;;;5072445;28;20419;-69
2024/03/11 11:26:57;;;;;;;2.07;1.37;;;15.90;1.00;;;;;;5072126;28;20412;-70
2024/03/11 11:29:24;;;;;;;2.40;1.70;;;16.20;1.00;;;;;;5073107;28;20420;-69
2024/03/11 11:31:59;;;;;;;1.80;1.30;;;16.10;1.00;;;;;;5072255;28;20908;-69
2024/03/11 11:34:45;;;;;;;2.10;1.40;;;15.90;1.00;;;;;;5072261;28;20415;-69
2024/03/11 11:37:35;;;;;;;2.00;1.50;;;16.00;1.00;;;;;;5061521;28;20431;-68
2024/03/11 11:40:29;;;;;;;2.53;1.33;;;15.80;1.00;;;;;;5072215;28;20551;-69
2024/03/11 11:42:55;;;;;;;2.27;1.53;;;15.90;1.00;;;;;;5072459;28;20413;-74
2024/03/11 11:45:47;;;;;;;1.90;1.40;;;16.00;1.00;;;;;;5071927;28;20475;-72
2024/03/11 11:48:15;;;;;;;2.00;1.60;;;15.60;1.00;;;;;;5065291;28;20485;-68
2024/03/11 11:50:41;;;;;;;3.27;1.30;;;15.30;1.00;;;;;;5071762;28;21007;-68
2024/03/11 11:53:07;;;;;;;2.70;2.17;;;15.30;1.00;;;;;;5071920;28;20470;-71
2024/03/11 11:55:33;;;;;;;3.23;2.77;;;15.60;1.00;;;;;;5071775;28;20411;-71
2024/03/11 11:58:07;;;;;;;2.07;1.63;;;15.70;1.00;;;;;;5071834;28;20181;-72
2024/03/11 12:00:43;;;;;;;2.00;1.37;;;15.50;1.00;;;;;;5071873;28;20471;-72
2024/03/11 12:03:30;;;;;;;2.57;1.73;;;15.40;1.00;;;;;;5070630;28;20942;-72
2024/03/11 12:06:08;;;;;;;1.90;1.30;;;15.10;1.00;;;;;;5053765;28;20779;-72
2024/03/11 12:08:34;;;;;;;3.37;1.30;;;15.20;1.00;;;;;;5071925;28;20404;-72
2024/03/11 12:11:10;;;;;;;2.07;1.30;;;15.40;1.00;;;;;;5070497;28;21049;-72
2024/03/11 12:13:42;;;;;;;2.60;1.57;;;15.20;1.00;;;;;;5071499;28;20172;-72
2024/03/11 12:16:11;;;;;;;1.83;1.50;;;14.90;1.00;;;;;;5071777;28;20409;-72
2024/03/11 12:18:39;;;;;;;1.97;1.20;;;14.60;1.00;;;;;;5071791;28;20408;-71
2024/03/11 12:21:13;;;;;;;2.33;1.47;;;14.40;1.00;;;;;;5071528;28;20471;-72
2024/03/11 12:23:41;;;;;;;1.83;1.23;;;14.00;1.00;;;;;;5071985;28;20501;-69
2024/03/11 12:26:13;;;;;;;1.80;1.20;;;13.70;1.00;;;;;;5071698;28;20457;-70
2024/03/11 12:28:43;;;;;;;2.17;1.27;;;13.50;1.00;;;;;;5071682;28;20989;-70
2024/03/11 12:31:12;;;;;;;1.70;1.17;;;13.20;1.00;;;;;;5071519;28;20455;-70
2024/03/11 12:33:38;;;;;;;2.50;1.30;;;13.00;1.00;;;;;;5071779;28;20412;-71
2024/03/11 12:36:05;;;;;;;2.13;1.00;;;12.60;1.00;;;;;;5071602;28;20733;-71
2024/03/11 12:38:32;;;;;;;2.53;1.23;;;12.60;1.00;;;;;;5053634;28;20518;-71
2024/03/11 12:40:57;;;;;;;1.80;1.00;;;12.70;1.00;;;;;;5074426;28;20838;-71
2024/03/11 12:43:30;;;;;;;1.80;1.00;;;12.90;1.00;;;;;;5082594;28;20477;-71
2024/03/11 12:45:59;;;;;;;1.73;1.10;;;13.20;1.00;;;;;;5077286;28;20588;-70
2024/03/11 12:48:25;;;;;;;2.43;1.10;;;13.60;1.00;;;;;;5072394;28;20423;-70
2024/03/11 12:50:55;;;;;;;1.80;1.10;;;13.50;1.00;;;;;;5072657;28;20432;-71
2024/03/11 12:53:26;;;;;;;2.10;1.27;;;13.70;1.00;;;;;;5082655;28;20422;-70
2024/03/11 12:56:07;;;;;;;1.60;1.10;;;14.10;1.00;;;;;;5092275;28;20772;-69
2024/03/11 12:58:39;;;;;;;2.10;1.60;;;14.80;1.00;;;;;;5091897;28;20599;-69
2024/03/11 13:01:15;;;;;;;1.70;1.03;;;15.50;1.00;;;;;;5091685;28;20458;-69
2024/03/11 13:03:41;;;;;;;2.20;1.40;;;15.70;1.00;;;;;;5092320;28;20882;-68
2024/03/11 13:06:09;;;;;;;3.03;1.67;;;15.60;1.00;;;;;;5091475;28;20412;-69